Time;durP1;ratioP1;P1;durP2;ratioP2;P2;SDS_P1;SDS_P2;PMS_P1;PMS_P2;Temp;Humidity;BMP_temperature;BMP_pressure;BME280_temperature;BME280_humidity;BME280_pressure;Samples;Min_cycle;Max_cycle;Signal;HPM_P1;HPM_P2
2022/04/20 00:01:24;;;;;;;4.37;3.57;;;;;;;13.67;35.65;98485.53;7034118;28;20312;-77
2022/04/20 00:04:45;;;;;;;5.40;3.83;;;;;;;13.94;35.06;98470.50;7033974;28;20227;-77
2022/04/20 00:08:07;;;;;;;4.63;3.57;;;;;;;13.55;36.02;98490.09;7034243;28;20212;-77
2022/04/20 00:11:29;;;;;;;3.80;3.50;;;;;;;13.39;36.55;98498.84;7040310;28;20775;-78
2022/04/20 00:14:50;;;;;;;3.90;3.30;;;;;;;13.07;37.28;98488.47;7042722;28;20221;-77
2022/04/20 00:18:13;;;;;;;4.10;3.73;;;;;;;13.15;37.06;98499.81;7038894;28;20210;-77
2022/04/20 00:21:35;;;;;;;4.50;3.70;;;;;;;13.19;37.21;98497.47;7034559;28;20231;-78
2022/04/20 00:24:56;;;;;;;4.40;4.00;;;;;;;12.27;38.99;98489.59;7037594;28;20239;-78
2022/04/20 00:28:18;;;;;;;5.97;4.00;;;;;;;12.35;38.96;98492.03;7036127;28;20267;-78
2022/04/20 00:31:39;;;;;;;4.43;4.03;;;;;;;12.58;38.41;98481.34;7034243;28;20315;-78
2022/04/20 00:35:02;;;;;;;4.90;3.80;;;;;;;12.18;38.79;98474.75;7036923;28;20203;-78
2022/04/20 00:38:26;;;;;;;4.40;4.00;;;;;;;11.85;39.84;98495.81;7035662;28;20303;-78
2022/04/20 00:41:47;;;;;;;4.03;3.60;;;;;;;12.07;39.38;98485.44;7035743;28;20232;-78
2022/04/20 00:45:11;;;;;;;4.07;3.77;;;;;;;11.81;40.29;98493.78;7036107;28;20232;-78
2022/04/20 00:48:35;;;;;;;4.60;4.20;;;;;;;11.85;40.30;98487.72;7035837;28;20215;-78
2022/04/20 00:51:59;;;;;;;4.40;4.00;;;;;;;12.10;39.48;98488.53;7036212;28;20231;-78
2022/04/20 00:55:20;;;;;;;4.40;4.00;;;;;;;11.59;40.80;98479.00;7036229;28;20210;-78
2022/04/20 00:58:43;;;;;;;4.40;3.93;;;;;;;11.44;41.27;98460.38;7035507;28;20196;-78
2022/04/20 01:02:05;;;;;;;4.10;3.70;;;;;;;11.56;41.27;98493.72;7035683;28;20760;-78
2022/04/20 01:05:27;;;;;;;4.17;3.80;;;;;;;11.49;41.69;98478.63;7036008;28;20256;-78
2022/04/20 01:08:49;;;;;;;6.60;4.20;;;;;;;11.41;42.30;98481.59;7034780;28;20210;-77
2022/04/20 01:12:12;;;;;;;5.13;4.20;;;;;;;11.10;42.44;98473.50;7035980;28;20592;-78
2022/04/20 01:15:35;;;;;;;4.50;4.10;;;;;;;11.14;42.74;98478.22;7036139;28;20198;-78
2022/04/20 01:18:56;;;;;;;4.73;4.30;;;;;;;11.37;42.29;98480.34;7035560;28;20209;-77
2022/04/20 01:22:19;;;;;;;5.00;4.17;;;;;;;11.27;42.24;98477.34;7037555;28;20394;-78
2022/04/20 01:25:41;;;;;;;5.03;4.27;;;;;;;11.24;42.18;98488.53;7039780;28;20224;-78
2022/04/20 01:29:03;;;;;;;6.33;4.10;;;;;;;11.32;42.15;98478.31;7041058;28;20747;-77
2022/04/20 01:32:25;;;;;;;4.50;4.10;;;;;;;10.86;43.26;98496.63;7033919;28;20566;-77
2022/04/20 01:35:47;;;;;;;4.50;4.10;;;;;;;11.42;42.04;98489.47;7034610;28;20213;-77
2022/04/20 01:39:10;;;;;;;4.13;3.73;;;;;;;11.75;41.12;98494.66;7033924;28;20295;-78
2022/04/20 01:42:32;;;;;;;4.20;3.80;;;;;;;11.93;40.41;98465.00;7033847;28;20670;-78
2022/04/20 01:45:53;;;;;;;6.13;4.30;;;;;;;11.31;41.84;98475.84;7034121;28;20615;-78
2022/04/20 01:49:15;;;;;;;4.80;4.07;;;;;;;12.16;40.10;98478.72;7034436;28;20238;-78
2022/04/20 01:52:37;;;;;;;4.70;4.20;;;;;;;12.27;40.12;98486.91;7035350;28;20229;-78
2022/04/20 01:56:00;;;;;;;5.23;4.73;;;;;;;12.49;40.28;98487.28;7034488;28;20296;-78
2022/04/20 01:59:21;;;;;;;4.77;4.37;;;;;;;12.29;40.76;98487.53;7035345;28;20206;-78
2022/04/20 02:02:45;;;;;;;4.30;3.83;;;;;;;11.73;41.40;98464.31;7034670;28;20240;-78
2022/04/20 02:06:10;;;;;;;4.40;3.97;;;;;;;11.70;41.07;98459.38;7033852;28;20222;-78
2022/04/20 02:09:32;;;;;;;4.50;4.10;;;;;;;11.58;42.38;98482.72;7034683;28;20230;-77
2022/04/20 02:12:55;;;;;;;6.43;3.90;;;;;;;11.69;41.35;98474.75;7034735;28;20233;-78
2022/04/20 02:16:16;;;;;;;4.53;4.13;;;;;;;11.55;42.15;98475.03;7035068;28;20214;-78
2022/04/20 02:19:38;;;;;;;6.03;4.07;;;;;;;11.22;43.39;98491.44;7034730;28;20274;-78
2022/04/20 02:22:59;;;;;;;5.17;4.20;;;;;;;10.82;43.87;98457.66;7036178;28;20208;-78
2022/04/20 02:26:21;;;;;;;4.57;3.93;;;;;;;11.20;43.11;98498.09;7034125;28;20221;-78
2022/04/20 02:29:44;;;;;;;4.33;3.93;;;;;;;11.08;43.72;98494.44;7034878;28;20225;-78
2022/04/20 02:33:06;;;;;;;5.17;4.10;;;;;;;10.68;44.52;98504.59;7034444;28;20250;-78
2022/04/20 02:36:28;;;;;;;5.30;4.40;;;;;;;10.75;44.14;98501.88;7033692;28;20650;-77
2022/04/20 02:39:49;;;;;;;4.23;3.93;;;;;;;10.60;44.08;98480.56;7034657;28;20226;-77
2022/04/20 02:43:11;;;;;;;4.43;4.00;;;;;;;10.57;44.42;98482.88;7038169;28;20209;-78
2022/04/20 02:46:35;;;;;;;5.43;4.43;;;;;;;10.55;44.81;98496.56;7045049;28;20309;-78
2022/04/20 02:49:56;;;;;;;4.83;4.33;;;;;;;10.50;44.39;98476.69;7034566;28;20237;-77
2022/04/20 02:53:18;;;;;;;4.97;4.23;;;;;;;10.26;45.31;98480.88;7028914;28;20687;-75
2022/04/20 02:56:39;;;;;;;6.37;4.30;;;;;;;9.97;45.97;98464.31;7028429;28;20247;-76
2022/04/20 03:00:04;;;;;;;4.90;4.50;;;;;;;10.11;46.00;98487.53;7029295;28;20228;-75
2022/04/20 03:03:26;;;;;;;7.27;4.50;;;;;;;9.88;46.71;98479.03;7028406;28;20276;-75
2022/04/20 03:06:48;;;;;;;8.40;4.53;;;;;;;9.91;46.08;98457.06;7028394;28;20306;-75
2022/04/20 03:10:10;;;;;;;5.30;4.53;;;;;;;9.73;45.91;98448.81;7028870;28;20571;-75
2022/04/20 03:13:32;;;;;;;5.20;4.70;;;;;;;10.07;46.06;98492.53;7028998;28;20661;-75
2022/04/20 03:16:54;;;;;;;5.93;4.27;;;;;;;9.82;46.76;98490.66;7028229;28;20209;-75
2022/04/20 03:20:17;;;;;;;5.33;4.70;;;;;;;9.31;47.68;98482.34;7028901;28;20244;-76
2022/04/20 03:23:38;;;;;;;5.30;4.77;;;;;;;9.20;48.33;98495.53;7028759;28;20201;-76
2022/04/20 03:27:00;;;;;;;5.37;4.87;;;;;;;9.47;47.93;98492.72;7027565;28;20228;-76
2022/04/20 03:30:25;;;;;;;7.50;4.83;;;;;;;10.00;46.75;98490.84;7028419;28;20258;-76
2022/04/20 03:33:46;;;;;;;6.17;4.67;;;;;;;10.12;46.15;98490.03;7027818;28;20205;-76
2022/04/20 03:37:10;;;;;;;6.43;4.90;;;;;;;10.10;45.28;98492.09;7027674;28;20290;-76
2022/04/20 03:40:32;;;;;;;5.17;4.67;;;;;;;9.97;45.51;98480.47;7028177;28;20301;-76
2022/04/20 03:43:53;;;;;;;4.47;4.03;;;;;;;9.71;45.89;98493.94;7027725;28;20292;-76
2022/04/20 03:47:15;;;;;;;5.53;4.97;;;;;;;9.69;46.21;98499.53;7027343;28;20763;-76
2022/04/20 03:50:36;;;;;;;6.87;5.17;;;;;;;9.41;47.13;98501.59;7028961;28;20686;-76
2022/04/20 03:53:59;;;;;;;6.17;4.90;;;;;;;9.36;47.23;98501.38;7027896;28;20422;-76
2022/04/20 03:57:21;;;;;;;5.37;4.43;;;;;;;9.17;47.40;98493.28;7027566;28;20243;-76
2022/04/20 04:00:43;;;;;;;6.23;4.90;;;;;;;9.47;47.22;98502.63;7028142;28;20225;-76
2022/04/20 04:04:05;;;;;;;5.33;4.30;;;;;;;9.30;47.17;98482.53;7028460;28;20205;-76
2022/04/20 04:07:27;;;;;;;4.53;4.20;;;;;;;9.16;47.18;98502.38;7031380;28;20228;-76
2022/04/20 04:10:50;;;;;;;5.00;4.50;;;;;;;9.47;46.89;98490.03;7033556;28;20285;-76
2022/04/20 04:14:12;;;;;;;9.47;5.20;;;;;;;8.50;48.37;98440.53;7035045;28;20204;-81
2022/04/20 04:17:33;;;;;;;6.43;5.80;;;;;;;8.81;48.01;98462.34;7037376;28;20730;-83
2022/04/20 04:20:55;;;;;;;6.83;6.13;;;;;;;8.94;48.47;98503.56;7038434;28;20241;-79
2022/04/20 04:27:54;;;;;;;6.23;5.57;;;;;;;9.05;47.66;98493.03;7020589;28;20213;-77
2022/04/20 04:31:15;;;;;;;6.17;5.50;;;;;;;8.75;47.93;98482.81;7019443;28;20219;-81
2022/04/20 04:34:37;;;;;;;6.23;5.10;;;;;;;8.33;49.38;98520.66;7019862;28;20289;-78
2022/04/20 04:37:59;;;;;;;5.80;5.20;;;;;;;7.96;50.44;98499.50;7028429;28;20208;-78
2022/04/20 04:41:23;;;;;;;6.53;5.27;;;;;;;7.95;51.96;98462.13;7019926;28;20312;-78
2022/04/20 04:44:46;;;;;;;5.37;4.93;;;;;;;9.07;50.20;98520.56;7008107;28;20348;-88
2022/04/20 04:51:48;;;;;;;10.27;5.17;;;;;;;8.97;47.86;98519.31;7010148;28;20217;-85
2022/04/20 04:55:12;;;;;;;5.67;4.77;;;;;;;8.60;49.00;98467.88;7007103;28;20297;-86
2022/04/20 04:58:34;;;;;;;5.80;5.07;;;;;;;8.14;48.68;98454.19;7008555;28;20297;-83
2022/04/20 05:01:58;;;;;;;5.57;4.93;;;;;;;8.05;49.94;98462.59;7010779;28;20230;-86
2022/04/20 05:05:20;;;;;;;5.23;4.73;;;;;;;8.56;48.72;98518.50;7048779;28;20292;-88
2022/04/20 05:08:41;;;;;;;6.17;5.37;;;;;;;7.97;50.58;98476.19;7034980;28;20341;-82
2022/04/20 05:12:03;;;;;;;6.43;5.60;;;;;;;8.10;50.47;98471.72;7036093;28;20228;-83
2022/04/20 05:15:25;;;;;;;5.93;5.33;;;;;;;8.65;49.33;98514.59;7032096;28;20197;-80
2022/04/20 05:18:48;;;;;;;5.40;4.90;;;;;;;8.61;48.57;98502.59;7031770;28;20580;-81
2022/04/20 05:22:10;;;;;;;7.07;5.00;;;;;;;8.20;48.85;98456.09;7035144;28;20221;-80
2022/04/20 05:25:31;;;;;;;5.33;4.83;;;;;;;8.69;48.85;98506.97;7031174;28;20239;-79
2022/04/20 05:28:53;;;;;;;6.20;4.87;;;;;;;9.04;48.30;98515.56;7006720;28;20201;-82
2022/04/20 05:32:15;;;;;;;7.13;5.43;;;;;;;8.23;50.55;98522.00;7020857;28;20263;-81
2022/04/20 05:35:38;;;;;;;5.40;4.90;;;;;;;9.43;47.56;98490.63;7032838;28;20240;-79
2022/04/20 05:42:39;;;;;;;5.00;4.60;;;;;;;10.57;45.60;98515.22;7026940;28;20284;-80
2022/04/20 05:46:00;;;;;;;7.17;4.90;;;;;;;11.32;43.33;98510.72;7022979;28;20253;-79
2022/04/20 05:49:22;;;;;;;5.13;4.60;;;;;;;11.79;42.67;98517.47;7007326;28;20210;-80
2022/04/20 05:52:45;;;;;;;5.80;4.60;;;;;;;12.52;40.56;98511.19;7007460;28;20287;-79
2022/04/20 05:56:07;;;;;;;6.13;4.77;;;;;;;12.84;39.76;98513.53;7004381;28;20203;-80
2022/04/20 05:59:28;;;;;;;5.43;4.93;;;;;;;13.36;38.42;98510.16;7005513;28;20271;-80
2022/04/20 06:02:50;;;;;;;4.67;4.27;;;;;;;12.60;38.60;98481.97;7004948;28;20201;-79
2022/04/20 06:06:11;;;;;;;5.60;4.50;;;;;;;13.01;38.32;98511.03;7003671;28;20278;-79
2022/04/20 06:09:34;;;;;;;5.17;4.67;;;;;;;13.41;38.23;98521.13;7004282;28;20595;-80
2022/04/20 06:12:56;;;;;;;4.93;4.50;;;;;;;13.56;37.40;98507.97;7004446;28;20267;-80
2022/04/20 06:16:17;;;;;;;4.73;4.33;;;;;;;11.81;40.30;98518.91;7005355;28;20206;-80
2022/04/20 06:19:41;;;;;;;4.73;4.33;;;;;;;11.39;41.99;98521.47;7004930;28;20230;-79
2022/04/20 06:23:02;;;;;;;5.20;4.70;;;;;;;11.72;41.39;98501.34;7004657;28;20209;-80
2022/04/20 06:26:25;;;;;;;7.73;5.20;;;;;;;11.23;42.61;98530.06;7004023;28;20233;-79
2022/04/20 06:29:47;;;;;;;4.87;4.47;;;;;;;12.59;39.45;98522.75;7004064;28;20596;-80
2022/04/20 06:33:08;;;;;;;4.90;4.50;;;;;;;12.32;40.34;98527.59;7003107;28;20202;-79
2022/04/20 06:36:30;;;;;;;5.37;4.30;;;;;;;13.19;38.62;98530.81;7004960;28;20190;-80
2022/04/20 06:39:51;;;;;;;4.90;4.50;;;;;;;13.09;38.79;98521.59;7004633;28;20312;-80
2022/04/20 06:43:15;;;;;;;5.67;4.63;;;;;;;13.42;37.48;98511.94;7005253;28;20210;-80
2022/04/20 06:46:37;;;;;;;5.20;4.70;;;;;;;12.50;39.63;98497.88;7003919;28;20267;-79
2022/04/20 06:49:58;;;;;;;5.33;4.40;;;;;;;13.06;37.73;98492.25;7003919;28;20221;-80
2022/04/20 07:00:39;;;;;;;5.23;4.53;;;;;;;13.74;37.37;98488.94;7013161;28;20214;-80
2022/04/20 07:04:01;;;;;;;5.80;5.30;;;;;;;13.20;37.59;98512.66;7018645;28;20787;-79
2022/04/20 07:07:23;;;;;;;4.70;4.30;;;;;;;13.67;37.75;98501.78;7017259;28;20228;-79
2022/04/20 07:10:44;;;;;;;4.93;4.33;;;;;;;12.73;38.83;98472.84;7013096;28;20356;-79
2022/04/20 07:14:06;;;;;;;4.80;4.40;;;;;;;14.70;35.13;98501.00;7031411;28;20201;-79
2022/04/20 07:17:29;;;;;;;7.53;4.80;;;;;;;12.68;38.73;98488.97;7030566;28;20207;-80
2022/04/20 07:20:51;;;;;;;5.60;4.63;;;;;;;13.36;37.35;98490.38;7031443;28;20228;-79
2022/04/20 07:24:12;;;;;;;4.60;4.20;;;;;;;14.49;36.67;98488.06;7030765;28;20669;-79
2022/04/20 07:27:34;;;;;;;5.20;4.70;;;;;;;14.21;34.87;98460.84;7031491;28;20247;-79
2022/04/20 07:30:55;;;;;;;4.30;3.90;;;;;;;15.13;34.68;98470.69;7031190;28;20251;-80
2022/04/20 07:34:18;;;;;;;4.80;4.33;;;;;;;14.74;33.54;98494.06;7023200;28;20205;-79
2022/04/20 07:37:40;;;;;;;5.60;4.10;;;;;;;14.09;35.42;98489.00;7018512;28;20674;-79
2022/04/20 07:41:02;;;;;;;5.57;4.10;;;;;;;14.87;33.36;98473.97;7018850;28;20221;-80
2022/04/20 07:44:23;;;;;;;4.47;4.07;;;;;;;15.82;33.17;98495.63;7023135;28;20210;-80
2022/04/20 07:47:45;;;;;;;5.97;4.17;;;;;;;16.39;31.81;98499.88;7033440;28;20225;-80
2022/04/20 07:51:08;;;;;;;4.53;3.73;;;;;;;16.59;31.68;98494.75;7036229;28;20236;-80
2022/04/20 07:54:29;;;;;;;5.80;3.83;;;;;;;16.12;32.49;98501.63;7036948;28;20203;-79
2022/04/20 07:57:53;;;;;;;4.57;4.17;;;;;;;13.81;34.87;98492.38;7036846;28;20210;-79
2022/04/20 08:01:17;;;;;;;3.93;3.63;;;;;;;15.57;33.80;98488.97;7036199;28;20236;-79
2022/04/20 08:04:39;;;;;;;3.83;3.53;;;;;;;15.90;32.30;98478.09;7037149;28;20205;-79
2022/04/20 08:08:02;;;;;;;4.27;3.97;;;;;;;15.53;32.18;98498.66;7035979;28;20257;-79
2022/04/20 08:11:23;;;;;;;4.90;3.90;;;;;;;16.15;31.86;98471.19;7037129;28;20584;-80
2022/04/20 08:14:45;;;;;;;4.17;3.77;;;;;;;15.73;31.45;98502.56;7036470;28;20204;-80
2022/04/20 08:18:07;;;;;;;4.20;3.80;;;;;;;14.68;33.39;98505.84;7035580;28;20218;-79
2022/04/20 08:21:28;;;;;;;4.23;3.70;;;;;;;14.20;34.58;98494.44;7035787;28;20229;-79
2022/04/20 08:24:51;;;;;;;4.00;3.70;;;;;;;14.25;33.96;98510.84;7038371;28;20300;-79
2022/04/20 08:28:13;;;;;;;4.73;3.87;;;;;;;15.69;32.03;98498.69;7036929;28;20234;-79
2022/04/20 08:31:35;;;;;;;4.13;3.83;;;;;;;15.01;33.43;98453.63;7035701;28;20299;-79
2022/04/20 08:34:57;;;;;;;4.20;3.80;;;;;;;15.92;31.82;98484.94;7036579;28;20312;-79
2022/04/20 08:38:18;;;;;;;4.13;3.73;;;;;;;15.03;32.60;98495.75;7036553;28;20205;-79
2022/04/20 08:41:42;;;;;;;4.17;3.40;;;;;;;15.73;32.44;98490.84;7035694;28;20289;-79
2022/04/20 08:45:05;;;;;;;3.30;3.00;;;;;;;15.75;31.66;98508.56;7014879;28;20557;-80
2022/04/20 08:48:26;;;;;;;4.73;3.40;;;;;;;16.07;29.74;98479.75;7026393;28;20354;-79
2022/04/20 08:55:25;;;;;;;3.50;3.20;;;;;;;16.51;29.62;98478.03;6988964;28;20291;-80
2022/04/20 08:58:50;;;;;;;3.70;3.40;;;;;;;17.44;29.04;98487.66;7034410;28;20219;-80
2022/04/20 09:02:12;;;;;;;6.57;3.47;;;;;;;15.67;29.93;98483.69;7035346;28;20596;-80
2022/04/20 09:05:36;;;;;;;3.83;3.53;;;;;;;16.30;29.87;98476.88;7034326;28;20205;-80
2022/04/20 09:08:57;;;;;;;3.67;3.37;;;;;;;15.91;30.13;98479.75;7034636;28;20229;-80
2022/04/20 09:12:20;;;;;;;3.43;3.13;;;;;;;17.24;28.91;98481.97;7035391;28;20260;-80
2022/04/20 09:15:43;;;;;;;4.93;3.60;;;;;;;16.90;27.68;98468.72;7034652;28;20209;-80
2022/04/20 09:19:06;;;;;;;4.00;3.60;;;;;;;14.70;31.59;98478.50;7035612;28;20217;-80
2022/04/20 09:22:30;;;;;;;3.50;3.20;;;;;;;15.74;30.34;98444.41;7035783;28;20227;-79
2022/04/20 09:25:52;;;;;;;4.20;3.33;;;;;;;17.11;29.02;98457.81;7035558;28;20217;-80
2022/04/20 09:29:15;;;;;;;8.30;3.27;;;;;;;18.22;26.93;98460.53;7029903;28;20244;-80
2022/04/20 09:32:40;;;;;;;4.00;3.43;;;;;;;16.04;29.66;98476.72;7011390;28;20202;-80
2022/04/20 09:36:01;;;;;;;5.07;3.53;;;;;;;17.55;27.45;98461.31;7029669;28;20201;-80
2022/04/20 09:39:25;;;;;;;4.07;3.43;;;;;;;16.29;28.08;98474.38;7034893;28;20212;-80
2022/04/20 09:43:00;;;;;;;3.93;3.47;;;;;;;17.81;27.88;98457.75;7034295;28;20540;-80
2022/04/20 09:50:03;;;;;;;3.83;3.40;;;;;;;15.06;29.68;98472.72;7018707;28;20237;-83
2022/04/20 09:53:33;;;;;;;3.63;2.93;;;;;;;16.96;26.42;98474.00;7018891;28;20194;-81
2022/04/20 09:57:08;;;;;;;3.20;2.90;;;;;;;16.67;28.91;98461.63;7016814;28;20668;-79
2022/04/20 10:00:38;;;;;;;8.40;3.23;;;;;;;18.19;26.60;98468.44;7021155;28;20241;-81
2022/04/20 10:04:00;;;;;;;4.00;3.53;;;;;;;18.27;27.27;98454.31;7010916;28;20189;-81
2022/04/20 10:07:24;;;;;;;4.27;3.33;;;;;;;17.56;26.99;98450.16;7010125;28;20224;-80
2022/04/20 10:10:48;;;;;;;6.10;2.70;;;;;;;17.56;26.03;98444.72;7031817;28;20716;-78
2022/04/20 10:17:50;;;;;;;3.33;2.93;;;;;;;17.57;25.02;98445.56;7032170;28;20214;-79
2022/04/20 10:21:12;;;;;;;36.23;31.73;;;;;;;18.79;25.53;98436.06;7032447;28;20243;-79
2022/04/20 10:24:39;;;;;;;4.57;3.20;;;;;;;16.84;25.52;98432.47;7033030;28;20212;-79
2022/04/20 10:28:12;;;;;;;3.50;3.17;;;;;;;16.76;26.38;98441.03;7032125;28;20213;-78
2022/04/20 10:31:39;;;;;;;3.37;3.07;;;;;;;16.93;25.87;98430.09;7031073;28;20230;-80
2022/04/20 10:35:03;;;;;;;3.30;3.07;;;;;;;17.99;25.35;98425.44;7032991;28;20711;-79
2022/04/20 10:38:25;;;;;;;3.67;3.33;;;;;;;16.76;26.00;98421.19;7031678;28;20295;-81
2022/04/20 10:42:18;;;;;;;3.03;2.73;;;;;;;16.14;28.08;98425.19;7032771;28;20736;-80
2022/04/20 10:46:07;;;;;;;3.50;3.20;;;;;;;18.08;25.66;98418.44;7030211;28;20424;-78
2022/04/20 10:49:34;;;;;;;3.30;3.00;;;;;;;17.57;24.25;98418.28;7031575;28;20214;-79
2022/04/20 10:53:02;;;;;;;3.37;3.10;;;;;;;17.29;26.02;98405.69;7016776;28;20209;-79
2022/04/20 10:56:24;;;;;;;3.60;3.30;;;;;;;19.25;24.51;98405.09;7003057;28;20739;-79
2022/04/20 11:00:27;;;;;;;3.50;3.20;;;;;;;19.20;24.93;98394.97;7002758;28;20235;-79
2022/04/20 11:04:06;;;;;;;3.57;3.27;;;;;;;17.88;25.34;98406.53;7002811;28;20209;-79
2022/04/20 11:07:32;;;;;;;3.80;3.40;;;;;;;18.14;25.37;98397.44;7030147;28;20229;-79
2022/04/20 11:18:42;;;;;;;4.03;3.40;;;;;;;18.32;24.80;98395.16;7035971;28;20202;-79
2022/04/20 11:22:07;;;;;;;4.47;3.33;;;;;;;19.14;24.86;98384.28;7037229;28;20310;-79
2022/04/20 11:25:30;;;;;;;3.30;3.03;;;;;;;19.28;23.13;98377.25;7036816;28;20207;-79
2022/04/20 11:28:52;;;;;;;3.50;3.17;;;;;;;18.78;24.62;98393.44;7036273;28;20225;-79
2022/04/20 11:32:15;;;;;;;3.20;3.00;;;;;;;19.55;23.36;98366.88;7035306;28;20222;-78
2022/04/20 11:35:37;;;;;;;5.30;3.10;;;;;;;18.92;23.72;98362.63;7036362;28;20206;-79
2022/04/20 11:39:00;;;;;;;3.57;3.27;;;;;;;19.78;22.67;98348.00;7015105;28;20230;-79
2022/04/20 11:42:22;;;;;;;3.87;3.50;;;;;;;19.55;22.81;98355.94;7008448;28;20230;-79
2022/04/20 11:45:43;;;;;;;5.00;3.20;;;;;;;18.54;22.73;98352.13;7015194;28;20338;-78
2022/04/20 11:49:10;;;;;;;3.20;2.90;;;;;;;18.64;23.21;98351.34;7035669;28;20590;-79
2022/04/20 11:52:33;;;;;;;3.97;2.90;;;;;;;18.81;23.20;98333.66;7035348;28;20206;-78
2022/04/20 11:55:55;;;;;;;3.30;3.00;;;;;;;18.22;24.81;98364.22;7033465;28;20202;-80
2022/04/20 11:59:19;;;;;;;4.00;3.00;;;;;;;17.53;25.22;98358.03;7020931;28;20194;-79
2022/04/20 12:02:40;;;;;;;5.07;3.10;;;;;;;18.23;24.00;98347.56;7018829;28;20293;-79
2022/04/20 12:06:03;;;;;;;3.93;2.90;;;;;;;18.49;24.21;98308.44;7023040;28;20231;-79
2022/04/20 12:09:28;;;;;;;4.37;2.90;;;;;;;18.83;22.88;98328.75;7035346;28;20248;-79
2022/04/20 12:12:50;;;;;;;5.43;3.03;;;;;;;18.47;23.63;98301.59;7035011;28;20284;-79
2022/04/20 12:16:14;;;;;;;7.57;3.67;;;;;;;19.20;22.79;98334.00;7033644;28;20198;-78
2022/04/20 12:19:39;;;;;;;3.30;3.00;;;;;;;19.74;21.84;98305.06;7034625;28;20716;-77
2022/04/20 12:23:07;;;;;;;3.30;3.00;;;;;;;21.05;20.45;98307.06;7034847;28;20189;-77
2022/04/20 12:26:31;;;;;;;3.13;2.90;;;;;;;19.96;22.01;98313.75;7032537;28;20209;-78
2022/04/20 12:29:54;;;;;;;5.20;3.00;;;;;;;19.55;20.59;98301.22;7034249;28;20692;-76
2022/04/20 12:33:22;;;;;;;3.23;2.93;;;;;;;18.76;21.67;98319.97;7033278;28;20204;-77
2022/04/20 12:36:52;;;;;;;5.40;3.20;;;;;;;18.49;21.90;98305.69;7033767;28;20265;-78
2022/04/20 12:40:20;;;;;;;2.77;2.50;;;;;;;18.01;22.76;98311.44;7034058;28;20248;-78
2022/04/20 12:43:43;;;;;;;3.20;2.83;;;;;;;19.36;21.56;98300.97;7016392;28;20402;-78
2022/04/20 12:47:40;;;;;;;2.87;2.67;;;;;;;20.13;21.00;98298.72;7005004;28;20228;-79
2022/04/20 12:51:01;;;;;;;2.80;2.60;;;;;;;20.45;20.69;98295.59;7031610;28;20296;-79
2022/04/20 12:54:24;;;;;;;3.20;2.90;;;;;;;19.53;20.60;98303.44;7033482;28;20209;-78
2022/04/20 13:05:12;;;;;;;4.90;2.70;;;;;;;21.12;20.69;98276.59;7016021;28;20213;-79
2022/04/20 13:08:34;;;;;;;3.67;3.23;;;;;;;20.60;19.06;98284.56;7005226;28;20247;-78
2022/04/20 13:11:56;;;;;;;3.50;3.20;;;;;;;19.50;20.00;98276.63;7005201;28;20335;-78
2022/04/20 13:15:18;;;;;;;3.10;2.80;;;;;;;20.51;19.80;98273.38;7005780;28;20214;-78
2022/04/20 13:18:41;;;;;;;4.70;3.10;;;;;;;20.38;20.08;98268.50;7004538;28;20606;-78
2022/04/20 13:22:04;;;;;;;3.30;3.00;;;;;;;20.65;20.99;98276.31;7005414;28;20225;-78
2022/04/20 13:29:05;;;;;;;3.60;2.77;;;;;;;19.25;20.72;98277.47;7005120;28;20212;-79
2022/04/20 13:32:26;;;;;;;3.70;2.80;;;;;;;19.57;20.10;98269.00;7003501;28;20234;-77
2022/04/20 13:35:52;;;;;;;3.23;2.93;;;;;;;20.33;20.13;98254.03;7004831;28;20216;-79
2022/04/20 13:39:13;;;;;;;3.50;3.20;;;;;;;19.74;19.90;98264.84;7005310;28;20220;-78
2022/04/20 13:42:35;;;;;;;2.70;2.50;;;;;;;20.65;20.60;98255.22;7004899;28;20200;-79
2022/04/20 13:45:57;;;;;;;4.63;3.37;;;;;;;20.76;19.14;98251.31;7005371;28;20217;-79
2022/04/20 13:49:18;;;;;;;3.63;2.80;;;;;;;18.76;21.68;98259.06;7006201;28;20296;-79
2022/04/20 13:52:41;;;;;;;3.23;2.93;;;;;;;20.70;21.17;98259.84;7006363;28;20201;-79
2022/04/20 13:56:03;;;;;;;2.90;2.70;;;;;;;20.56;19.78;98259.66;7004971;28;20267;-79
2022/04/20 13:59:24;;;;;;;4.73;2.47;;;;;;;20.98;20.02;98246.25;7005476;28;20209;-79
2022/04/20 14:02:46;;;;;;;2.80;2.60;;;;;;;21.68;20.52;98240.19;7016567;28;20198;-79
2022/04/20 14:06:08;;;;;;;3.03;2.70;;;;;;;19.83;21.09;98254.16;7017921;28;20289;-79
2022/04/20 14:09:31;;;;;;;3.00;2.80;;;;;;;20.77;19.81;98252.97;7022882;28;20837;-79
2022/04/20 14:12:52;;;;;;;2.90;2.70;;;;;;;20.69;20.43;98248.06;7031139;28;20213;-79
2022/04/20 14:16:14;;;;;;;2.80;2.60;;;;;;;19.98;20.18;98245.91;7026801;28;20197;-79
2022/04/20 14:19:40;;;;;;;4.40;2.67;;;;;;;20.16;20.62;98261.75;7017556;28;20230;-79
2022/04/20 14:23:01;;;;;;;3.60;3.30;;;;;;;18.75;21.74;98238.31;7010675;28;20194;-79
2022/04/20 14:33:49;;;;;;;5.40;3.10;;;;;;;19.98;21.03;98246.72;6952875;28;20571;-79
2022/04/20 14:37:11;;;;;;;4.73;3.60;;;;;;;20.16;21.54;98248.88;7032191;28;20688;-79
2022/04/20 14:40:35;;;;;;;3.23;2.60;;;;;;;20.32;20.87;98266.06;7032477;28;20213;-79
2022/04/20 14:43:59;;;;;;;3.23;2.93;;;;;;;19.99;20.62;98248.34;7023583;28;20229;-79
2022/04/20 14:47:20;;;;;;;3.10;2.80;;;;;;;18.80;22.56;98257.47;7019190;28;20199;-78
2022/04/20 14:50:47;;;;;;;3.13;2.93;;;;;;;19.69;21.75;98253.09;7022311;28;20256;-79
2022/04/20 14:54:09;;;;;;;4.63;2.80;;;;;;;20.05;21.90;98252.72;7009843;28;20659;-79
2022/04/20 14:57:31;;;;;;;3.13;2.80;;;;;;;20.53;21.45;98257.50;7003728;28;20226;-79
2022/04/20 15:00:55;;;;;;;5.13;3.50;;;;;;;20.25;22.33;98241.72;7004810;28;20318;-79
2022/04/20 15:04:16;;;;;;;4.07;2.63;;;;;;;21.04;20.79;98252.53;7004273;28;20324;-79
2022/04/20 15:07:38;;;;;;;7.10;3.50;;;;;;;20.93;20.70;98231.78;7004415;28;20231;-79
2022/04/20 15:11:01;;;;;;;4.47;2.87;;;;;;;21.07;20.54;98238.25;7004603;28;20344;-79
2022/04/20 15:14:22;;;;;;;3.00;2.70;;;;;;;21.03;21.24;98246.22;7004519;28;20582;-79
2022/04/20 15:17:45;;;;;;;3.30;3.00;;;;;;;20.19;21.90;98231.06;7004112;28;20399;-79
2022/04/20 15:21:07;;;;;;;3.23;2.93;;;;;;;20.32;21.23;98224.97;7004548;28;20260;-79
2022/04/20 15:24:29;;;;;;;3.80;2.90;;;;;;;19.76;22.16;98235.28;7004945;28;20558;-79
2022/04/20 15:27:50;;;;;;;4.13;3.00;;;;;;;20.57;21.59;98228.41;7003825;28;20222;-79
2022/04/20 15:31:15;;;;;;;4.23;3.47;;;;;;;19.75;22.29;98235.59;7002914;28;20229;-79
2022/04/20 15:34:38;;;;;;;3.33;3.03;;;;;;;19.13;22.94;98240.53;7010081;28;20566;-79
2022/04/20 15:38:00;;;;;;;3.83;3.53;;;;;;;19.51;22.76;98242.75;7032043;28;20225;-79
2022/04/20 15:41:21;;;;;;;4.83;3.27;;;;;;;19.87;22.12;98245.09;7025646;28;20238;-79
2022/04/20 15:44:43;;;;;;;3.20;2.90;;;;;;;19.91;22.36;98235.25;7018998;28;20191;-79
2022/04/20 15:48:07;;;;;;;3.27;2.97;;;;;;;19.46;22.48;98229.88;7018831;28;20279;-79
2022/04/20 15:51:30;;;;;;;2.90;2.70;;;;;;;19.62;22.29;98206.03;7019591;28;20228;-79
2022/04/20 16:00:14;;;;;;;3.73;3.20;;;;;;;19.18;22.32;98229.59;7018720;28;20203;-79
2022/04/20 16:02:12;;;;;;;2.97;2.60;;;;;;;19.65;21.70;98221.91;7034182;28;20230;-79
2022/04/20 16:05:34;;;;;;;3.17;2.60;;;;;;;19.92;21.94;98223.22;7020646;28;20217;-79
2022/04/20 16:08:57;;;;;;;3.00;2.80;;;;;;;19.61;22.02;98209.88;7008163;28;20231;-79
2022/04/20 16:12:19;;;;;;;2.90;2.60;;;;;;;20.17;21.77;98205.91;7009051;28;20235;-79
2022/04/20 16:15:40;;;;;;;4.53;3.60;;;;;;;20.15;21.28;98214.38;7020420;28;20350;-79
2022/04/20 16:19:02;;;;;;;3.70;3.00;;;;;;;20.39;21.15;98181.72;7019086;28;20202;-79
2022/04/20 16:22:25;;;;;;;4.37;3.00;;;;;;;20.10;22.25;98233.56;7021820;28;20854;-77
2022/04/20 16:25:48;;;;;;;3.47;3.13;;;;;;;20.09;21.75;98204.56;7023591;28;20944;-78
2022/04/20 16:29:10;;;;;;;4.13;3.53;;;;;;;20.63;21.61;98216.31;7006804;28;20379;-78
2022/04/20 16:32:33;;;;;;;3.87;3.00;;;;;;;20.24;21.83;98209.16;7006763;28;20234;-80
2022/04/20 16:35:56;;;;;;;2.80;2.60;;;;;;;20.37;21.32;98233.19;7006616;28;20215;-77
2022/04/20 16:39:18;;;;;;;3.90;2.70;;;;;;;19.73;21.74;98180.31;7007217;28;20210;-78
2022/04/20 16:42:42;;;;;;;3.70;2.77;;;;;;;19.74;21.36;98212.88;7006907;28;20205;-77
2022/04/20 16:46:03;;;;;;;2.90;2.60;;;;;;;18.88;22.04;98210.47;7006808;28;20349;-77
2022/04/20 16:49:25;;;;;;;3.10;2.80;;;;;;;19.67;21.43;98201.41;7007107;28;20230;-78
2022/04/20 16:52:46;;;;;;;3.30;2.50;;;;;;;20.08;21.17;98213.06;7006765;28;20347;-76
2022/04/20 16:56:08;;;;;;;2.70;2.50;;;;;;;20.41;20.86;98218.63;7005892;28;20298;-77